createdAt,value
2024-02-02T00:04:58.887Z,4.03
2024-02-02T00:10:00.500Z,4.18
2024-02-02T00:15:05.675Z,3.60
2024-02-02T00:20:09.980Z,3.55
2024-02-02T00:25:11.639Z,3.72
2024-02-02T00:30:13.602Z,3.72
2024-02-02T00:35:15.335Z,3.78
2024-02-02T00:40:19.902Z,4.43
2024-02-02T00:45:22.818Z,3.88
2024-02-02T00:50:24.200Z,3.75
2024-02-02T00:55:25.744Z,3.50
2024-02-02T01:00:27.264Z,5.05
2024-02-02T01:05:32.334Z,4.25
2024-02-02T01:10:33.812Z,3.95
2024-02-02T01:15:38.265Z,3.40
2024-02-02T01:20:40.575Z,4.00
2024-02-02T01:25:42.191Z,3.70
2024-02-02T01:30:43.640Z,3.55
2024-02-02T01:35:45.369Z,3.40
2024-02-02T01:40:46.691Z,5.03
2024-02-02T01:45:47.998Z,3.92
2024-02-02T01:50:50.429Z,3.30
2024-02-02T01:55:52.090Z,3.85
2024-02-02T02:00:54.441Z,3.80
2024-02-02T02:05:56.303Z,3.42
2024-02-02T02:10:58.367Z,4.18
2024-02-02T02:16:00.080Z,3.72
2024-02-02T02:21:27.081Z,3.65
2024-02-02T02:26:29.506Z,4.47
2024-02-02T02:31:30.895Z,4.18
2024-02-02T02:36:34.834Z,4.03
2024-02-02T02:41:36.538Z,4.17
2024-02-02T02:46:38.229Z,4.60
2024-02-02T02:51:39.633Z,4.03
2024-02-02T02:56:43.907Z,4.60
2024-02-02T03:01:46.117Z,4.55
2024-02-02T03:06:47.922Z,4.45
2024-02-02T03:11:49.387Z,4.25
2024-02-02T03:16:50.707Z,3.97
2024-02-02T03:21:52.230Z,4.15
2024-02-02T03:26:53.593Z,4.60
2024-02-02T03:31:54.928Z,3.22
2024-02-02T03:36:56.421Z,4.05
2024-02-02T03:41:57.778Z,3.88
2024-02-02T03:46:59.398Z,4.20
2024-02-02T03:52:08.356Z,4.05
2024-02-02T03:57:10.511Z,4.05
2024-02-02T04:02:12.351Z,4.40
2024-02-02T04:07:13.689Z,4.43
2024-02-02T04:12:17.252Z,4.18
2024-02-02T04:17:18.837Z,3.53
2024-02-02T04:22:20.321Z,4.18
2024-02-02T04:27:22.461Z,3.42
2024-02-02T04:32:23.916Z,3.72
2024-02-02T04:37:25.250Z,3.83
2024-02-02T04:42:27.336Z,3.67
2024-02-02T04:47:28.996Z,3.90
2024-02-02T04:52:31.783Z,3.58
2024-02-02T04:57:33.235Z,3.70
2024-02-02T05:02:34.777Z,3.35
2024-02-02T05:07:36.982Z,3.65
2024-02-02T05:12:41.393Z,4.00
2024-02-02T05:17:45.434Z,3.50
2024-02-02T05:22:47.013Z,4.60
2024-02-02T05:27:48.583Z,3.78
2024-02-02T05:32:49.964Z,4.53
2024-02-02T05:37:53.302Z,5.40
2024-02-02T05:42:54.976Z,4.88
2024-02-02T05:47:56.515Z,4.03
2024-02-02T05:52:57.922Z,4.03
2024-02-02T05:57:59.971Z,3.78
2024-02-02T06:03:01.784Z,4.70
2024-02-02T06:08:03.939Z,4.63
2024-02-02T06:13:07.890Z,4.45
2024-02-02T06:18:09.716Z,3.97
2024-02-02T06:23:13.216Z,4.75
2024-02-02T06:28:15.793Z,4.85
2024-02-02T06:33:18.670Z,4.60
2024-02-02T06:38:21.993Z,5.15
2024-02-02T06:43:23.585Z,5.00
2024-02-02T06:48:25.831Z,4.93
2024-02-02T06:53:30.320Z,5.63
2024-02-02T06:58:46.529Z,4.20
2024-02-02T07:03:48.645Z,3.90
2024-02-02T07:08:53.235Z,5.88
2024-02-02T07:13:54.691Z,4.35
2024-02-02T07:18:56.767Z,4.43
2024-02-02T07:23:59.712Z,4.50
2024-02-02T07:29:06.913Z,4.95
2024-02-02T07:34:30.581Z,4.50
2024-02-02T07:39:32.544Z,4.78
2024-02-02T07:44:35.503Z,4.65
2024-02-02T07:49:37.289Z,3.95
2024-02-02T07:54:38.714Z,5.32
2024-02-02T07:59:40.126Z,4.70
2024-02-02T08:04:41.574Z,4.70
2024-02-02T08:09:43.220Z,4.60
2024-02-02T08:14:44.664Z,4.63
2024-02-02T08:19:46.474Z,4.85
2024-02-02T08:24:47.946Z,4.70
2024-02-02T08:29:49.787Z,4.25
2024-02-02T08:34:51.431Z,5.18
2024-02-02T08:39:54.013Z,5.07
2024-02-02T08:44:56.809Z,4.68
2024-02-02T08:50:02.195Z,5.75
2024-02-02T08:55:20.397Z,6.03
2024-02-02T09:00:41.335Z,5.53
2024-02-02T09:06:00.352Z,5.45
2024-02-02T09:11:03.753Z,6.15
2024-02-02T09:16:05.948Z,5.90
2024-02-02T09:21:08.978Z,5.82
2024-02-02T09:26:16.423Z,5.90
2024-02-02T09:31:23.691Z,6.18
2024-02-02T09:36:30.132Z,6.70
2024-02-02T09:41:52.644Z,6.15
2024-02-02T09:47:03.767Z,6.25
2024-02-02T09:52:20.186Z,6.28
2024-02-02T09:57:52.125Z,6.80
2024-02-02T10:03:19.033Z,7.00
2024-02-02T10:08:44.782Z,7.93
2024-02-02T10:14:05.118Z,7.35
2024-02-02T10:19:43.658Z,7.63
2024-02-02T10:24:51.893Z,7.35
2024-02-02T10:30:20.027Z,7.45
2024-02-02T10:35:48.415Z,6.82
2024-02-02T10:41:03.856Z,8.70
2024-02-02T10:46:30.440Z,9.90
2024-02-02T10:52:00.326Z,6.90
2024-02-02T10:57:27.943Z,6.78
2024-02-02T11:02:46.915Z,10.25
2024-02-02T11:08:03.510Z,7.00
2024-02-02T11:13:22.429Z,6.78
2024-02-02T11:18:54.327Z,5.82
2024-02-02T11:24:06.589Z,5.35
2024-02-02T11:29:19.696Z,6.63
2024-02-02T11:34:39.771Z,6.13
2024-02-02T11:39:57.812Z,5.40
2024-02-02T11:45:01.054Z,4.90
2024-02-02T11:50:07.846Z,4.93
2024-02-02T11:55:33.292Z,5.18
2024-02-02T12:00:56.527Z,5.30
2024-02-02T12:06:04.961Z,4.68
2024-02-02T12:11:11.724Z,4.03
2024-02-02T12:16:13.536Z,4.60
2024-02-02T12:21:16.780Z,7.00
2024-02-02T12:26:18.624Z,3.95
2024-02-02T12:31:20.093Z,4.38
2024-02-02T12:36:22.765Z,4.70
2024-02-02T12:41:24.939Z,3.67
2024-02-02T12:46:28.403Z,3.83
2024-02-02T12:51:30.646Z,3.67
2024-02-02T12:56:32.123Z,3.70
2024-02-02T13:01:34.245Z,3.67
2024-02-02T13:06:36.353Z,2.70
2024-02-02T13:11:43.612Z,5.28
2024-02-02T13:16:45.031Z,3.72
2024-02-02T13:21:46.985Z,3.78
2024-02-02T13:26:52.641Z,3.35
2024-02-02T13:31:54.199Z,3.28
2024-02-02T13:37:02.230Z,3.10
2024-02-02T13:42:06.303Z,4.70
2024-02-02T13:47:13.663Z,2.95
2024-02-02T13:52:15.270Z,10.18
2024-02-02T13:57:17.808Z,2.55
2024-02-02T14:02:20.979Z,6.43
2024-02-02T14:07:23.651Z,3.75
2024-02-02T14:12:25.313Z,3.53
2024-02-02T14:17:26.889Z,2.80
2024-02-02T14:22:28.687Z,5.45
2024-02-02T14:27:41.220Z,3.45
2024-02-02T14:32:42.852Z,6.05
2024-02-02T14:37:44.556Z,2.35
2024-02-02T14:42:46.203Z,2.70
2024-02-02T14:47:48.974Z,4.60
2024-02-02T14:52:50.606Z,3.70
2024-02-02T14:57:53.293Z,3.40
2024-02-02T15:02:55.256Z,5.70
2024-02-02T15:07:57.200Z,3.10
2024-02-02T15:12:58.724Z,3.80
2024-02-02T15:18:00.910Z,3.53
2024-02-02T15:23:02.625Z,3.30
2024-02-02T15:28:04.537Z,3.33
2024-02-02T15:33:05.995Z,3.17
2024-02-02T15:38:10.251Z,3.00
2024-02-02T15:48:16.228Z,3.08
2024-02-02T15:53:19.270Z,3.22
2024-02-02T15:58:20.798Z,3.40
2024-02-02T16:03:22.539Z,3.40
2024-02-02T16:08:24.107Z,4.20
2024-02-02T16:13:25.491Z,5.55
2024-02-02T16:18:27.222Z,3.40
2024-02-02T16:23:28.766Z,3.63
2024-02-02T16:28:30.627Z,3.05
2024-02-02T16:33:32.062Z,3.53
2024-02-02T16:38:35.985Z,3.40
2024-02-02T16:43:39.967Z,3.70
2024-02-02T16:48:41.696Z,3.90
2024-02-02T16:53:43.233Z,4.13
2024-02-02T16:58:45.376Z,4.43
2024-02-02T17:03:46.887Z,4.13
2024-02-02T17:08:48.475Z,3.38
2024-02-02T17:13:50.109Z,4.03
2024-02-02T17:18:53.375Z,3.45
2024-02-02T17:23:55.159Z,3.53
2024-02-02T17:29:00.517Z,3.25
2024-02-02T17:34:08.989Z,2.95
2024-02-02T17:39:10.654Z,2.45
2024-02-02T17:44:13.407Z,2.83
2024-02-02T17:49:15.387Z,2.88
2024-02-02T17:54:16.834Z,3.40
2024-02-02T17:59:19.385Z,3.20
2024-02-02T18:04:21.056Z,3.35
2024-02-02T18:09:22.727Z,3.15
2024-02-02T18:14:27.687Z,3.25
2024-02-02T18:19:31.866Z,3.05
2024-02-02T18:24:33.953Z,3.28
2024-02-02T18:29:35.511Z,4.68
2024-02-02T18:34:37.767Z,4.97
2024-02-02T18:39:39.429Z,3.63
2024-02-02T18:44:41.139Z,3.30
2024-02-02T18:49:43.381Z,2.80
2024-02-02T18:54:44.950Z,3.17
2024-02-02T18:59:46.604Z,3.15
2024-02-02T19:04:48.150Z,3.28
2024-02-02T19:09:52.587Z,3.13
2024-02-02T19:19:56.362Z,3.17
2024-02-02T19:24:59.898Z,3.63
2024-02-02T19:30:01.909Z,3.03
2024-02-02T19:35:03.686Z,3.70
2024-02-02T19:40:05.761Z,3.70
2024-02-02T19:45:07.275Z,3.45
2024-02-02T19:50:09.026Z,3.45
2024-02-02T19:55:10.374Z,4.15
2024-02-02T20:00:14.855Z,3.60
2024-02-02T20:05:16.777Z,3.45
2024-02-02T20:10:18.109Z,4.07
2024-02-02T20:15:19.598Z,4.43
2024-02-02T20:20:21.656Z,4.25
2024-02-02T20:25:23.088Z,4.32
2024-02-02T20:30:24.826Z,4.38
2024-02-02T20:35:27.096Z,4.15
2024-02-02T20:40:31.594Z,4.10
2024-02-02T20:45:33.086Z,4.05
2024-02-02T20:50:34.530Z,4.82
2024-02-02T20:55:36.013Z,4.47
2024-02-02T21:00:40.042Z,4.47
2024-02-02T21:05:41.723Z,4.32
2024-02-02T21:10:43.266Z,4.35
2024-02-02T21:15:45.319Z,4.25
2024-02-02T21:20:53.108Z,5.03
2024-02-02T21:25:56.886Z,4.75
2024-02-02T21:31:00.068Z,4.40
2024-02-02T21:36:04.230Z,3.58
2024-02-02T21:41:06.054Z,4.13
2024-02-02T21:46:07.622Z,4.22
2024-02-02T21:51:10.657Z,3.95
2024-02-02T21:56:12.139Z,4.25
2024-02-02T22:01:13.857Z,4.20
2024-02-02T22:06:16.097Z,4.18
2024-02-02T22:11:19.098Z,3.95
2024-02-02T22:16:20.753Z,4.13
2024-02-02T22:21:24.954Z,4.50
2024-02-02T22:26:26.385Z,3.78
2024-02-02T22:31:27.971Z,4.65
2024-02-02T22:36:29.368Z,4.47
2024-02-02T22:41:34.999Z,4.47
2024-02-02T22:46:36.874Z,4.20
2024-02-02T22:51:48.101Z,4.15
2024-02-02T22:56:49.499Z,4.32
2024-02-02T23:01:50.916Z,4.72
2024-02-02T23:06:52.382Z,4.80
2024-02-02T23:11:53.853Z,4.63
2024-02-02T23:16:55.490Z,4.05
2024-02-02T23:21:56.984Z,4.60
2024-02-02T23:26:59.606Z,4.35
2024-02-02T23:32:02.007Z,5.05
2024-02-02T23:37:03.770Z,4.65
2024-02-02T23:42:06.829Z,5.55
2024-02-02T23:47:08.493Z,4.43
2024-02-02T23:52:11.757Z,4.35
2024-02-02T23:57:14.592Z,5.32
